sensor_id;sensor_type;location;lat;lon;timestamp;P1;durP1;ratioP1;P2;durP2;ratioP2
28934;SDS011;16044;52.726;-2.108;2022-08-01T00:00:13;4.90;;;1.70;;
28934;SDS011;16044;52.726;-2.108;2022-08-01T00:02:40;7.85;;;2.25;;
28934;SDS011;16044;52.726;-2.108;2022-08-01T00:05:07;5.20;;;2.10;;
28934;SDS011;16044;52.726;-2.108;2022-08-01T00:07:35;8.02;;;1.90;;
28934;SDS011;16044;52.726;-2.108;2022-08-01T00:10:05;7.72;;;2.00;;
28934;SDS011;16044;52.726;-2.108;2022-08-01T00:12:35;6.90;;;2.08;;
28934;SDS011;16044;52.726;-2.108;2022-08-01T00:15:03;7.25;;;2.50;;
28934;SDS011;16044;52.726;-2.108;2022-08-01T00:17:33;5.72;;;2.08;;
28934;SDS011;16044;52.726;-2.108;2022-08-01T00:20:00;5.35;;;1.60;;
28934;SDS011;16044;52.726;-2.108;2022-08-01T00:22:30;7.63;;;2.40;;
28934;SDS011;16044;52.726;-2.108;2022-08-01T00:24:58;6.15;;;1.77;;
28934;SDS011;16044;52.726;-2.108;2022-08-01T00:27:25;5.32;;;2.15;;
28934;SDS011;16044;52.726;-2.108;2022-08-01T00:29:53;8.88;;;2.03;;
28934;SDS011;16044;52.726;-2.108;2022-08-01T00:32:39;5.60;;;2.00;;
28934;SDS011;16044;52.726;-2.108;2022-08-01T00:35:07;9.35;;;1.95;;
28934;SDS011;16044;52.726;-2.108;2022-08-01T00:37:34;4.07;;;1.73;;
28934;SDS011;16044;52.726;-2.108;2022-08-01T00:40:01;5.75;;;1.80;;
28934;SDS011;16044;52.726;-2.108;2022-08-01T00:42:28;5.85;;;2.10;;
28934;SDS011;16044;52.726;-2.108;2022-08-01T00:44:55;5.68;;;2.20;;
28934;SDS011;16044;52.726;-2.108;2022-08-01T00:47:22;7.60;;;2.40;;
28934;SDS011;16044;52.726;-2.108;2022-08-01T00:49:49;8.93;;;2.45;;
28934;SDS011;16044;52.726;-2.108;2022-08-01T00:52:16;11.40;;;2.22;;
28934;SDS011;16044;52.726;-2.108;2022-08-01T00:54:43;6.38;;;2.45;;
28934;SDS011;16044;52.726;-2.108;2022-08-01T00:57:10;5.05;;;2.40;;
28934;SDS011;16044;52.726;-2.108;2022-08-01T00:59:40;5.80;;;2.20;;
28934;SDS011;16044;52.726;-2.108;2022-08-01T01:02:08;6.00;;;2.20;;
28934;SDS011;16044;52.726;-2.108;2022-08-01T01:04:41;5.25;;;2.28;;
28934;SDS011;16044;52.726;-2.108;2022-08-01T01:13:23;5.93;;;1.90;;
28934;SDS011;16044;52.726;-2.108;2022-08-01T01:16:15;6.30;;;2.10;;
28934;SDS011;16044;52.726;-2.108;2022-08-01T01:18:52;5.10;;;2.10;;
28934;SDS011;16044;52.726;-2.108;2022-08-01T01:23:54;5.53;;;1.80;;
28934;SDS011;16044;52.726;-2.108;2022-08-01T01:29:34;7.22;;;2.05;;
28934;SDS011;16044;52.726;-2.108;2022-08-01T01:32:33;5.68;;;2.00;;
28934;SDS011;16044;52.726;-2.108;2022-08-01T01:35:06;6.28;;;1.60;;
28934;SDS011;16044;52.726;-2.108;2022-08-01T01:37:39;6.55;;;1.88;;
28934;SDS011;16044;52.726;-2.108;2022-08-01T01:40:09;5.05;;;1.80;;
28934;SDS011;16044;52.726;-2.108;2022-08-01T01:42:37;5.55;;;2.20;;
28934;SDS011;16044;52.726;-2.108;2022-08-01T01:45:06;5.43;;;2.45;;
28934;SDS011;16044;52.726;-2.108;2022-08-01T01:47:34;6.68;;;2.15;;
28934;SDS011;16044;52.726;-2.108;2022-08-01T01:50:03;5.63;;;2.08;;
28934;SDS011;16044;52.726;-2.108;2022-08-01T01:52:33;8.13;;;2.08;;
28934;SDS011;16044;52.726;-2.108;2022-08-01T01:55:01;5.82;;;2.47;;
28934;SDS011;16044;52.726;-2.108;2022-08-01T01:57:32;4.82;;;1.90;;
28934;SDS011;16044;52.726;-2.108;2022-08-01T02:00:09;5.60;;;1.88;;
28934;SDS011;16044;52.726;-2.108;2022-08-01T02:02:38;7.20;;;1.90;;
28934;SDS011;16044;52.726;-2.108;2022-08-01T02:05:09;6.75;;;2.22;;
28934;SDS011;16044;52.726;-2.108;2022-08-01T02:07:38;6.70;;;2.13;;
28934;SDS011;16044;52.726;-2.108;2022-08-01T02:10:06;7.68;;;1.98;;
28934;SDS011;16044;52.726;-2.108;2022-08-01T02:12:36;7.47;;;2.47;;
28934;SDS011;16044;52.726;-2.108;2022-08-01T02:15:08;6.13;;;2.10;;
28934;SDS011;16044;52.726;-2.108;2022-08-01T02:17:37;6.28;;;2.05;;
28934;SDS011;16044;52.726;-2.108;2022-08-01T02:20:10;4.55;;;2.08;;
28934;SDS011;16044;52.726;-2.108;2022-08-01T02:22:44;6.35;;;2.17;;
28934;SDS011;16044;52.726;-2.108;2022-08-01T02:28:32;4.00;;;1.80;;
28934;SDS011;16044;52.726;-2.108;2022-08-01T02:31:14;6.63;;;1.83;;
28934;SDS011;16044;52.726;-2.108;2022-08-01T02:33:53;6.60;;;1.70;;
28934;SDS011;16044;52.726;-2.108;2022-08-01T02:36:28;5.25;;;1.80;;
28934;SDS011;16044;52.726;-2.108;2022-08-01T02:39:04;6.57;;;1.77;;
28934;SDS011;16044;52.726;-2.108;2022-08-01T02:41:38;4.65;;;1.60;;
28934;SDS011;16044;52.726;-2.108;2022-08-01T02:44:10;3.22;;;1.85;;
28934;SDS011;16044;52.726;-2.108;2022-08-01T02:46:58;3.38;;;1.75;;
28934;SDS011;16044;52.726;-2.108;2022-08-01T02:52:03;5.55;;;2.30;;
28934;SDS011;16044;52.726;-2.108;2022-08-01T02:54:34;10.85;;;1.90;;
28934;SDS011;16044;52.726;-2.108;2022-08-01T02:57:03;8.07;;;2.42;;
28934;SDS011;16044;52.726;-2.108;2022-08-01T02:59:38;6.80;;;2.47;;
28934;SDS011;16044;52.726;-2.108;2022-08-01T03:02:07;4.90;;;2.65;;
28934;SDS011;16044;52.726;-2.108;2022-08-01T03:04:37;6.93;;;2.53;;
28934;SDS011;16044;52.726;-2.108;2022-08-01T03:07:06;5.35;;;2.20;;
28934;SDS011;16044;52.726;-2.108;2022-08-01T03:09:39;7.00;;;2.78;;
28934;SDS011;16044;52.726;-2.108;2022-08-01T03:12:11;8.02;;;2.80;;
28934;SDS011;16044;52.726;-2.108;2022-08-01T03:14:44;6.88;;;2.28;;
28934;SDS011;16044;52.726;-2.108;2022-08-01T03:17:15;6.03;;;3.05;;
28934;SDS011;16044;52.726;-2.108;2022-08-01T03:19:45;8.73;;;3.17;;
28934;SDS011;16044;52.726;-2.108;2022-08-01T03:22:14;7.13;;;3.08;;
28934;SDS011;16044;52.726;-2.108;2022-08-01T03:24:42;10.40;;;5.22;;
28934;SDS011;16044;52.726;-2.108;2022-08-01T03:27:16;17.85;;;8.13;;
28934;SDS011;16044;52.726;-2.108;2022-08-01T03:29:45;16.45;;;7.22;;
28934;SDS011;16044;52.726;-2.108;2022-08-01T03:32:13;13.63;;;6.47;;
28934;SDS011;16044;52.726;-2.108;2022-08-01T03:34:43;14.68;;;6.13;;
28934;SDS011;16044;52.726;-2.108;2022-08-01T03:42:32;10.98;;;4.82;;
28934;SDS011;16044;52.726;-2.108;2022-08-01T03:45:09;13.40;;;4.03;;
28934;SDS011;16044;52.726;-2.108;2022-08-01T03:47:45;11.75;;;4.13;;
28934;SDS011;16044;52.726;-2.108;2022-08-01T03:50:17;10.70;;;4.25;;
28934;SDS011;16044;52.726;-2.108;2022-08-01T03:52:48;8.82;;;3.95;;
28934;SDS011;16044;52.726;-2.108;2022-08-01T03:55:17;8.77;;;4.40;;
28934;SDS011;16044;52.726;-2.108;2022-08-01T03:57:47;9.02;;;3.72;;
28934;SDS011;16044;52.726;-2.108;2022-08-01T04:00:14;9.75;;;3.75;;
28934;SDS011;16044;52.726;-2.108;2022-08-01T04:02:48;6.63;;;4.10;;
28934;SDS011;16044;52.726;-2.108;2022-08-01T04:05:16;9.10;;;4.00;;
28934;SDS011;16044;52.726;-2.108;2022-08-01T04:07:47;6.13;;;3.60;;
28934;SDS011;16044;52.726;-2.108;2022-08-01T04:10:22;7.97;;;3.83;;
28934;SDS011;16044;52.726;-2.108;2022-08-01T04:12:50;8.95;;;4.00;;
28934;SDS011;16044;52.726;-2.108;2022-08-01T04:15:17;9.73;;;3.97;;
28934;SDS011;16044;52.726;-2.108;2022-08-01T04:17:46;6.30;;;3.30;;
28934;SDS011;16044;52.726;-2.108;2022-08-01T04:20:14;7.85;;;3.63;;
28934;SDS011;16044;52.726;-2.108;2022-08-01T04:22:41;9.32;;;3.70;;
28934;SDS011;16044;52.726;-2.108;2022-08-01T04:25:12;9.45;;;3.90;;
28934;SDS011;16044;52.726;-2.108;2022-08-01T04:27:46;7.43;;;3.95;;
28934;SDS011;16044;52.726;-2.108;2022-08-01T04:30:19;9.60;;;4.50;;
28934;SDS011;16044;52.726;-2.108;2022-08-01T04:32:52;12.85;;;4.63;;
28934;SDS011;16044;52.726;-2.108;2022-08-01T04:35:22;5.95;;;3.42;;
28934;SDS011;16044;52.726;-2.108;2022-08-01T04:38:12;11.52;;;3.85;;
28934;SDS011;16044;52.726;-2.108;2022-08-01T04:40:44;10.32;;;4.45;;
28934;SDS011;16044;52.726;-2.108;2022-08-01T04:43:12;10.60;;;4.28;;
28934;SDS011;16044;52.726;-2.108;2022-08-01T04:45:40;9.57;;;4.30;;
28934;SDS011;16044;52.726;-2.108;2022-08-01T04:48:10;10.75;;;4.05;;
28934;SDS011;16044;52.726;-2.108;2022-08-01T04:50:37;10.70;;;4.40;;
28934;SDS011;16044;52.726;-2.108;2022-08-01T04:53:04;8.73;;;3.35;;
28934;SDS011;16044;52.726;-2.108;2022-08-01T04:55:31;8.82;;;4.03;;
28934;SDS011;16044;52.726;-2.108;2022-08-01T04:57:58;10.95;;;4.00;;
28934;SDS011;16044;52.726;-2.108;2022-08-01T05:00:26;7.13;;;4.13;;
28934;SDS011;16044;52.726;-2.108;2022-08-01T05:02:56;10.75;;;4.13;;
28934;SDS011;16044;52.726;-2.108;2022-08-01T05:05:22;6.82;;;3.33;;
28934;SDS011;16044;52.726;-2.108;2022-08-01T05:07:52;12.70;;;4.13;;
28934;SDS011;16044;52.726;-2.108;2022-08-01T05:10:19;7.63;;;3.90;;
28934;SDS011;16044;52.726;-2.108;2022-08-01T05:12:46;10.15;;;4.30;;
28934;SDS011;16044;52.726;-2.108;2022-08-01T05:15:13;7.18;;;3.88;;
28934;SDS011;16044;52.726;-2.108;2022-08-01T05:17:41;8.00;;;3.90;;
28934;SDS011;16044;52.726;-2.108;2022-08-01T05:20:09;11.02;;;4.35;;
28934;SDS011;16044;52.726;-2.108;2022-08-01T05:22:38;6.30;;;3.63;;
28934;SDS011;16044;52.726;-2.108;2022-08-01T05:25:05;9.25;;;4.13;;
28934;SDS011;16044;52.726;-2.108;2022-08-01T05:27:33;10.45;;;3.97;;
28934;SDS011;16044;52.726;-2.108;2022-08-01T05:30:08;9.60;;;4.20;;
28934;SDS011;16044;52.726;-2.108;2022-08-01T05:32:36;8.10;;;3.92;;
28934;SDS011;16044;52.726;-2.108;2022-08-01T05:35:04;9.40;;;3.95;;
28934;SDS011;16044;52.726;-2.108;2022-08-01T05:37:32;9.57;;;3.90;;
28934;SDS011;16044;52.726;-2.108;2022-08-01T05:39:59;7.28;;;3.95;;
28934;SDS011;16044;52.726;-2.108;2022-08-01T05:42:26;8.30;;;3.75;;
28934;SDS011;16044;52.726;-2.108;2022-08-01T05:44:53;9.88;;;3.72;;
28934;SDS011;16044;52.726;-2.108;2022-08-01T05:47:20;11.45;;;3.45;;
28934;SDS011;16044;52.726;-2.108;2022-08-01T05:49:47;9.90;;;4.32;;
28934;SDS011;16044;52.726;-2.108;2022-08-01T05:52:14;9.35;;;4.03;;
28934;SDS011;16044;52.726;-2.108;2022-08-01T05:54:41;13.13;;;4.00;;
28934;SDS011;16044;52.726;-2.108;2022-08-01T05:57:08;7.25;;;3.50;;
28934;SDS011;16044;52.726;-2.108;2022-08-01T05:59:36;6.63;;;3.53;;
28934;SDS011;16044;52.726;-2.108;2022-08-01T06:02:03;10.02;;;3.63;;
28934;SDS011;16044;52.726;-2.108;2022-08-01T06:04:30;6.65;;;3.70;;
28934;SDS011;16044;52.726;-2.108;2022-08-01T06:06:57;10.85;;;3.50;;
28934;SDS011;16044;52.726;-2.108;2022-08-01T06:09:24;9.68;;;3.40;;
28934;SDS011;16044;52.726;-2.108;2022-08-01T06:11:51;8.43;;;3.28;;
28934;SDS011;16044;52.726;-2.108;2022-08-01T06:14:18;6.82;;;3.60;;
28934;SDS011;16044;52.726;-2.108;2022-08-01T06:16:45;13.02;;;4.28;;
28934;SDS011;16044;52.726;-2.108;2022-08-01T06:19:12;16.05;;;4.00;;
28934;SDS011;16044;52.726;-2.108;2022-08-01T06:21:39;7.95;;;3.20;;
28934;SDS011;16044;52.726;-2.108;2022-08-01T06:24:06;8.32;;;3.75;;
28934;SDS011;16044;52.726;-2.108;2022-08-01T06:26:33;8.15;;;3.25;;
28934;SDS011;16044;52.726;-2.108;2022-08-01T06:28:59;9.98;;;3.88;;
28934;SDS011;16044;52.726;-2.108;2022-08-01T06:31:26;6.78;;;3.20;;
28934;SDS011;16044;52.726;-2.108;2022-08-01T06:33:59;8.55;;;3.20;;
28934;SDS011;16044;52.726;-2.108;2022-08-01T06:36:26;9.35;;;3.58;;
28934;SDS011;16044;52.726;-2.108;2022-08-01T06:38:53;8.10;;;3.40;;
28934;SDS011;16044;52.726;-2.108;2022-08-01T06:41:20;8.88;;;3.78;;
28934;SDS011;16044;52.726;-2.108;2022-08-01T06:43:47;6.35;;;2.85;;
28934;SDS011;16044;52.726;-2.108;2022-08-01T06:46:14;9.60;;;3.38;;
28934;SDS011;16044;52.726;-2.108;2022-08-01T06:48:41;11.35;;;3.00;;
28934;SDS011;16044;52.726;-2.108;2022-08-01T06:51:09;8.43;;;2.83;;
28934;SDS011;16044;52.726;-2.108;2022-08-01T06:53:37;8.27;;;3.13;;
28934;SDS011;16044;52.726;-2.108;2022-08-01T06:56:04;8.93;;;3.40;;
28934;SDS011;16044;52.726;-2.108;2022-08-01T06:58:34;8.30;;;2.90;;
28934;SDS011;16044;52.726;-2.108;2022-08-01T07:01:05;8.18;;;3.40;;
28934;SDS011;16044;52.726;-2.108;2022-08-01T07:03:34;13.60;;;3.42;;
28934;SDS011;16044;52.726;-2.108;2022-08-01T07:06:20;11.75;;;4.50;;
28934;SDS011;16044;52.726;-2.108;2022-08-01T07:08:49;10.57;;;3.72;;
28934;SDS011;16044;52.726;-2.108;2022-08-01T07:11:16;6.45;;;3.47;;
28934;SDS011;16044;52.726;-2.108;2022-08-01T07:13:43;11.15;;;4.90;;
28934;SDS011;16044;52.726;-2.108;2022-08-01T07:16:12;11.23;;;4.35;;
28934;SDS011;16044;52.726;-2.108;2022-08-01T07:18:40;7.18;;;4.25;;
28934;SDS011;16044;52.726;-2.108;2022-08-01T07:21:08;10.57;;;5.15;;
28934;SDS011;16044;52.726;-2.108;2022-08-01T07:23:55;12.88;;;5.40;;
28934;SDS011;16044;52.726;-2.108;2022-08-01T07:26:22;9.82;;;5.82;;
28934;SDS011;16044;52.726;-2.108;2022-08-01T07:28:53;9.48;;;4.63;;
28934;SDS011;16044;52.726;-2.108;2022-08-01T07:31:21;11.65;;;4.88;;
28934;SDS011;16044;52.726;-2.108;2022-08-01T07:33:49;7.18;;;3.95;;
28934;SDS011;16044;52.726;-2.108;2022-08-01T07:36:18;6.47;;;3.30;;
28934;SDS011;16044;52.726;-2.108;2022-08-01T07:38:45;9.05;;;3.13;;
28934;SDS011;16044;52.726;-2.108;2022-08-01T07:41:13;5.60;;;2.85;;
28934;SDS011;16044;52.726;-2.108;2022-08-01T07:43:41;9.25;;;3.35;;
28934;SDS011;16044;52.726;-2.108;2022-08-01T07:46:21;9.02;;;2.92;;
28934;SDS011;16044;52.726;-2.108;2022-08-01T07:48:48;8.15;;;2.75;;
28934;SDS011;16044;52.726;-2.108;2022-08-01T07:51:16;7.05;;;2.00;;
28934;SDS011;16044;52.726;-2.108;2022-08-01T07:53:43;7.10;;;2.17;;
28934;SDS011;16044;52.726;-2.108;2022-08-01T07:56:10;6.32;;;2.08;;
28934;SDS011;16044;52.726;-2.108;2022-08-01T07:58:36;6.72;;;2.72;;
28934;SDS011;16044;52.726;-2.108;2022-08-01T08:01:04;6.43;;;2.53;;
28934;SDS011;16044;52.726;-2.108;2022-08-01T08:03:31;9.38;;;2.63;;
28934;SDS011;16044;52.726;-2.108;2022-08-01T08:05:58;7.40;;;2.60;;
28934;SDS011;16044;52.726;-2.108;2022-08-01T08:08:25;7.70;;;2.65;;
28934;SDS011;16044;52.726;-2.108;2022-08-01T08:10:53;8.80;;;2.90;;
28934;SDS011;16044;52.726;-2.108;2022-08-01T08:13:20;8.30;;;3.00;;
28934;SDS011;16044;52.726;-2.108;2022-08-01T08:15:47;10.10;;;2.83;;
28934;SDS011;16044;52.726;-2.108;2022-08-01T08:18:15;12.73;;;3.45;;
28934;SDS011;16044;52.726;-2.108;2022-08-01T08:20:42;8.82;;;3.08;;
28934;SDS011;16044;52.726;-2.108;2022-08-01T08:23:09;7.47;;;2.80;;
28934;SDS011;16044;52.726;-2.108;2022-08-01T08:26:12;9.35;;;2.60;;
28934;SDS011;16044;52.726;-2.108;2022-08-01T08:28:39;11.93;;;2.70;;
28934;SDS011;16044;52.726;-2.108;2022-08-01T08:31:06;9.18;;;2.00;;
28934;SDS011;16044;52.726;-2.108;2022-08-01T08:33:54;9.35;;;1.92;;
28934;SDS011;16044;52.726;-2.108;2022-08-01T08:36:21;5.03;;;1.83;;
28934;SDS011;16044;52.726;-2.108;2022-08-01T08:38:56;9.25;;;1.92;;
28934;SDS011;16044;52.726;-2.108;2022-08-01T08:41:23;5.88;;;1.52;;
28934;SDS011;16044;52.726;-2.108;2022-08-01T08:43:50;5.07;;;1.50;;
28934;SDS011;16044;52.726;-2.108;2022-08-01T08:46:17;8.57;;;2.33;;
28934;SDS011;16044;52.726;-2.108;2022-08-01T08:48:54;7.78;;;2.22;;
28934;SDS011;16044;52.726;-2.108;2022-08-01T08:51:23;8.35;;;2.28;;
28934;SDS011;16044;52.726;-2.108;2022-08-01T08:53:54;9.55;;;2.65;;
28934;SDS011;16044;52.726;-2.108;2022-08-01T08:56:23;8.77;;;2.47;;
28934;SDS011;16044;52.726;-2.108;2022-08-01T08:58:53;5.75;;;2.10;;
28934;SDS011;16044;52.726;-2.108;2022-08-01T09:01:21;11.57;;;2.20;;
28934;SDS011;16044;52.726;-2.108;2022-08-01T09:03:48;9.07;;;2.10;;
28934;SDS011;16044;52.726;-2.108;2022-08-01T09:06:15;10.25;;;2.55;;
28934;SDS011;16044;52.726;-2.108;2022-08-01T09:08:42;4.55;;;1.77;;
28934;SDS011;16044;52.726;-2.108;2022-08-01T09:11:09;5.18;;;1.80;;
28934;SDS011;16044;52.726;-2.108;2022-08-01T09:13:39;4.78;;;1.58;;
28934;SDS011;16044;52.726;-2.108;2022-08-01T09:16:15;5.32;;;1.75;;
28934;SDS011;16044;52.726;-2.108;2022-08-01T09:18:43;3.97;;;1.40;;
28934;SDS011;16044;52.726;-2.108;2022-08-01T09:21:20;6.97;;;1.80;;
28934;SDS011;16044;52.726;-2.108;2022-08-01T09:23:51;5.07;;;1.40;;
28934;SDS011;16044;52.726;-2.108;2022-08-01T09:26:30;4.63;;;1.70;;
28934;SDS011;16044;52.726;-2.108;2022-08-01T09:29:02;5.53;;;1.52;;
28934;SDS011;16044;52.726;-2.108;2022-08-01T09:31:39;7.10;;;1.73;;
28934;SDS011;16044;52.726;-2.108;2022-08-01T09:34:13;8.57;;;1.73;;
28934;SDS011;16044;52.726;-2.108;2022-08-01T09:39:29;5.47;;;1.48;;
28934;SDS011;16044;52.726;-2.108;2022-08-01T09:42:00;7.65;;;1.50;;
28934;SDS011;16044;52.726;-2.108;2022-08-01T09:44:45;4.15;;;1.42;;
28934;SDS011;16044;52.726;-2.108;2022-08-01T09:47:20;6.25;;;1.60;;
28934;SDS011;16044;52.726;-2.108;2022-08-01T09:49:54;4.82;;;1.23;;
28934;SDS011;16044;52.726;-2.108;2022-08-01T09:52:25;7.28;;;1.40;;
28934;SDS011;16044;52.726;-2.108;2022-08-01T09:55:01;5.20;;;1.40;;
28934;SDS011;16044;52.726;-2.108;2022-08-01T09:57:31;3.88;;;1.23;;
28934;SDS011;16044;52.726;-2.108;2022-08-01T09:59:59;7.70;;;1.70;;
28934;SDS011;16044;52.726;-2.108;2022-08-01T10:02:36;4.32;;;1.52;;
28934;SDS011;16044;52.726;-2.108;2022-08-01T10:05:07;3.25;;;1.30;;
28934;SDS011;16044;52.726;-2.108;2022-08-01T10:07:56;5.72;;;1.30;;
28934;SDS011;16044;52.726;-2.108;2022-08-01T10:10:33;3.42;;;1.45;;
28934;SDS011;16044;52.726;-2.108;2022-08-01T10:13:02;7.20;;;1.52;;
28934;SDS011;16044;52.726;-2.108;2022-08-01T10:15:30;4.60;;;1.23;;
28934;SDS011;16044;52.726;-2.108;2022-08-01T10:18:04;4.93;;;1.30;;
28934;SDS011;16044;52.726;-2.108;2022-08-01T10:20:51;4.05;;;1.40;;
28934;SDS011;16044;52.726;-2.108;2022-08-01T10:23:22;2.83;;;1.00;;
28934;SDS011;16044;52.726;-2.108;2022-08-01T10:26:06;2.35;;;0.90;;
28934;SDS011;16044;52.726;-2.108;2022-08-01T10:28:35;2.90;;;1.08;;
28934;SDS011;16044;52.726;-2.108;2022-08-01T10:31:05;3.15;;;1.10;;
28934;SDS011;16044;52.726;-2.108;2022-08-01T10:33:38;2.40;;;0.80;;
28934;SDS011;16044;52.726;-2.108;2022-08-01T10:36:21;2.13;;;0.80;;
28934;SDS011;16044;52.726;-2.108;2022-08-01T10:38:51;3.42;;;1.00;;
28934;SDS011;16044;52.726;-2.108;2022-08-01T10:41:21;3.35;;;1.00;;
28934;SDS011;16044;52.726;-2.108;2022-08-01T10:43:52;2.47;;;1.00;;
28934;SDS011;16044;52.726;-2.108;2022-08-01T10:46:20;3.10;;;1.10;;
28934;SDS011;16044;52.726;-2.108;2022-08-01T10:48:54;2.47;;;0.90;;
28934;SDS011;16044;52.726;-2.108;2022-08-01T10:51:27;2.75;;;1.08;;
28934;SDS011;16044;52.726;-2.108;2022-08-01T10:54:14;8.20;;;1.13;;
28934;SDS011;16044;52.726;-2.108;2022-08-01T10:56:46;4.78;;;1.40;;
28934;SDS011;16044;52.726;-2.108;2022-08-01T10:59:23;3.55;;;1.05;;
28934;SDS011;16044;52.726;-2.108;2022-08-01T11:02:13;2.30;;;1.00;;
28934;SDS011;16044;52.726;-2.108;2022-08-01T11:04:58;3.28;;;1.27;;
28934;SDS011;16044;52.726;-2.108;2022-08-01T11:07:43;2.13;;;0.85;;
28934;SDS011;16044;52.726;-2.108;2022-08-01T11:12:49;4.88;;;0.85;;
28934;SDS011;16044;52.726;-2.108;2022-08-01T11:15:17;2.17;;;0.85;;
28934;SDS011;16044;52.726;-2.108;2022-08-01T11:17:56;2.72;;;1.00;;
28934;SDS011;16044;52.726;-2.108;2022-08-01T11:20:35;2.00;;;0.70;;
28934;SDS011;16044;52.726;-2.108;2022-08-01T11:28:23;2.95;;;0.70;;
28934;SDS011;16044;52.726;-2.108;2022-08-01T11:39:10;1.85;;;0.88;;
28934;SDS011;16044;52.726;-2.108;2022-08-01T11:41:40;1.88;;;0.80;;
28934;SDS011;16044;52.726;-2.108;2022-08-01T11:44:17;1.17;;;0.68;;
28934;SDS011;16044;52.726;-2.108;2022-08-01T11:52:32;1.90;;;0.80;;
28934;SDS011;16044;52.726;-2.108;2022-08-01T11:57:29;2.40;;;0.80;;
28934;SDS011;16044;52.726;-2.108;2022-08-01T12:00:04;1.42;;;0.70;;
28934;SDS011;16044;52.726;-2.108;2022-08-01T12:02:43;4.93;;;0.80;;
28934;SDS011;16044;52.726;-2.108;2022-08-01T12:05:13;2.28;;;0.85;;
28934;SDS011;16044;52.726;-2.108;2022-08-01T12:07:44;1.98;;;0.80;;
28934;SDS011;16044;52.726;-2.108;2022-08-01T12:10:16;2.50;;;0.90;;
28934;SDS011;16044;52.726;-2.108;2022-08-01T12:12:47;3.85;;;0.80;;
28934;SDS011;16044;52.726;-2.108;2022-08-01T12:15:16;2.22;;;0.93;;
28934;SDS011;16044;52.726;-2.108;2022-08-01T12:17:55;2.17;;;0.90;;
28934;SDS011;16044;52.726;-2.108;2022-08-01T12:20:29;1.63;;;0.75;;
28934;SDS011;16044;52.726;-2.108;2022-08-01T12:23:06;1.25;;;0.60;;
28934;SDS011;16044;52.726;-2.108;2022-08-01T12:25:35;3.17;;;0.90;;
28934;SDS011;16044;52.726;-2.108;2022-08-01T12:28:04;2.28;;;0.80;;
28934;SDS011;16044;52.726;-2.108;2022-08-01T12:30:35;1.48;;;0.68;;
28934;SDS011;16044;52.726;-2.108;2022-08-01T12:33:04;4.00;;;0.70;;
28934;SDS011;16044;52.726;-2.108;2022-08-01T12:35:34;1.85;;;0.70;;
28934;SDS011;16044;52.726;-2.108;2022-08-01T12:38:06;2.15;;;0.80;;
28934;SDS011;16044;52.726;-2.108;2022-08-01T12:40:40;1.52;;;0.70;;
28934;SDS011;16044;52.726;-2.108;2022-08-01T12:43:15;2.80;;;1.02;;
28934;SDS011;16044;52.726;-2.108;2022-08-01T12:45:54;2.33;;;0.77;;
28934;SDS011;16044;52.726;-2.108;2022-08-01T12:48:23;2.20;;;0.80;;
28934;SDS011;16044;52.726;-2.108;2022-08-01T12:50:51;4.78;;;0.80;;
28934;SDS011;16044;52.726;-2.108;2022-08-01T12:53:19;3.33;;;0.73;;
28934;SDS011;16044;52.726;-2.108;2022-08-01T12:55:49;1.90;;;0.90;;
28934;SDS011;16044;52.726;-2.108;2022-08-01T12:58:24;1.60;;;0.80;;
28934;SDS011;16044;52.726;-2.108;2022-08-01T13:01:05;2.35;;;0.73;;
28934;SDS011;16044;52.726;-2.108;2022-08-01T13:03:35;3.67;;;1.80;;
28934;SDS011;16044;52.726;-2.108;2022-08-01T13:06:09;1.95;;;0.80;;
28934;SDS011;16044;52.726;-2.108;2022-08-01T13:08:43;3.15;;;0.90;;
28934;SDS011;16044;52.726;-2.108;2022-08-01T13:11:11;1.52;;;0.63;;
28934;SDS011;16044;52.726;-2.108;2022-08-01T13:13:45;3.00;;;1.30;;
28934;SDS011;16044;52.726;-2.108;2022-08-01T13:16:18;3.58;;;0.90;;
28934;SDS011;16044;52.726;-2.108;2022-08-01T13:18:59;2.10;;;0.95;;
28934;SDS011;16044;52.726;-2.108;2022-08-01T13:21:30;1.90;;;0.70;;
28934;SDS011;16044;52.726;-2.108;2022-08-01T13:24:22;3.08;;;0.80;;
28934;SDS011;16044;52.726;-2.108;2022-08-01T13:26:58;1.60;;;0.85;;
28934;SDS011;16044;52.726;-2.108;2022-08-01T13:29:34;1.98;;;0.80;;
28934;SDS011;16044;52.726;-2.108;2022-08-01T13:32:15;1.90;;;0.80;;
28934;SDS011;16044;52.726;-2.108;2022-08-01T13:35:02;2.63;;;0.90;;
28934;SDS011;16044;52.726;-2.108;2022-08-01T13:37:32;1.33;;;0.70;;
28934;SDS011;16044;52.726;-2.108;2022-08-01T13:39:59;1.33;;;0.70;;
28934;SDS011;16044;52.726;-2.108;2022-08-01T13:42:26;1.67;;;0.75;;
28934;SDS011;16044;52.726;-2.108;2022-08-01T13:44:55;1.48;;;0.80;;
28934;SDS011;16044;52.726;-2.108;2022-08-01T13:47:22;1.42;;;0.80;;
28934;SDS011;16044;52.726;-2.108;2022-08-01T13:49:59;1.00;;;0.60;;
28934;SDS011;16044;52.726;-2.108;2022-08-01T13:52:29;3.80;;;0.80;;
28934;SDS011;16044;52.726;-2.108;2022-08-01T13:54:57;1.30;;;0.80;;
28934;SDS011;16044;52.726;-2.108;2022-08-01T13:57:25;3.33;;;0.80;;
28934;SDS011;16044;52.726;-2.108;2022-08-01T14:00:03;1.75;;;0.98;;
28934;SDS011;16044;52.726;-2.108;2022-08-01T14:02:50;2.78;;;1.40;;
28934;SDS011;16044;52.726;-2.108;2022-08-01T14:05:20;1.55;;;0.90;;
28934;SDS011;16044;52.726;-2.108;2022-08-01T14:07:47;2.45;;;0.70;;
28934;SDS011;16044;52.726;-2.108;2022-08-01T14:10:14;2.47;;;0.80;;
28934;SDS011;16044;52.726;-2.108;2022-08-01T14:12:48;1.33;;;0.77;;
28934;SDS011;16044;52.726;-2.108;2022-08-01T14:15:16;1.60;;;0.90;;
28934;SDS011;16044;52.726;-2.108;2022-08-01T14:18:03;3.80;;;1.05;;
28934;SDS011;16044;52.726;-2.108;2022-08-01T14:20:33;3.78;;;1.20;;
28934;SDS011;16044;52.726;-2.108;2022-08-01T14:23:01;1.98;;;1.20;;
28934;SDS011;16044;52.726;-2.108;2022-08-01T14:25:28;4.57;;;0.85;;
28934;SDS011;16044;52.726;-2.108;2022-08-01T14:28:14;1.50;;;0.80;;
28934;SDS011;16044;52.726;-2.108;2022-08-01T14:30:42;2.03;;;0.75;;
28934;SDS011;16044;52.726;-2.108;2022-08-01T14:33:10;1.50;;;0.80;;
28934;SDS011;16044;52.726;-2.108;2022-08-01T14:35:38;2.75;;;0.80;;
28934;SDS011;16044;52.726;-2.108;2022-08-01T14:38:26;1.55;;;0.70;;
28934;SDS011;16044;52.726;-2.108;2022-08-01T14:40:57;3.00;;;0.70;;
28934;SDS011;16044;52.726;-2.108;2022-08-01T14:43:25;1.75;;;0.73;;
28934;SDS011;16044;52.726;-2.108;2022-08-01T14:45:58;5.53;;;1.00;;
28934;SDS011;16044;52.726;-2.108;2022-08-01T14:48:30;2.25;;;0.60;;
28934;SDS011;16044;52.726;-2.108;2022-08-01T14:50:57;1.23;;;0.60;;
28934;SDS011;16044;52.726;-2.108;2022-08-01T14:53:29;1.98;;;0.90;;
28934;SDS011;16044;52.726;-2.108;2022-08-01T14:56:01;1.17;;;0.73;;
28934;SDS011;16044;52.726;-2.108;2022-08-01T14:58:31;1.52;;;0.90;;
28934;SDS011;16044;52.726;-2.108;2022-08-01T15:00:58;1.20;;;0.90;;
28934;SDS011;16044;52.726;-2.108;2022-08-01T15:03:25;1.88;;;0.93;;
28934;SDS011;16044;52.726;-2.108;2022-08-01T15:05:53;2.65;;;0.90;;
28934;SDS011;16044;52.726;-2.108;2022-08-01T15:08:20;2.40;;;0.90;;
28934;SDS011;16044;52.726;-2.108;2022-08-01T15:10:46;3.03;;;0.90;;
28934;SDS011;16044;52.726;-2.108;2022-08-01T15:13:13;1.52;;;0.70;;
28934;SDS011;16044;52.726;-2.108;2022-08-01T15:15:41;1.15;;;0.70;;
28934;SDS011;16044;52.726;-2.108;2022-08-01T15:18:08;1.45;;;0.70;;
28934;SDS011;16044;52.726;-2.108;2022-08-01T15:20:35;3.95;;;0.95;;
28934;SDS011;16044;52.726;-2.108;2022-08-01T15:23:02;2.53;;;0.90;;
28934;SDS011;16044;52.726;-2.108;2022-08-01T15:25:29;2.35;;;0.90;;
28934;SDS011;16044;52.726;-2.108;2022-08-01T15:28:07;1.27;;;0.70;;
28934;SDS011;16044;52.726;-2.108;2022-08-01T15:30:36;1.75;;;0.85;;
28934;SDS011;16044;52.726;-2.108;2022-08-01T15:33:03;0.80;;;0.60;;
28934;SDS011;16044;52.726;-2.108;2022-08-01T15:35:30;1.80;;;0.77;;
28934;SDS011;16044;52.726;-2.108;2022-08-01T15:37:57;2.83;;;0.80;;
28934;SDS011;16044;52.726;-2.108;2022-08-01T15:40:24;1.98;;;0.82;;
28934;SDS011;16044;52.726;-2.108;2022-08-01T15:42:53;2.75;;;0.90;;
28934;SDS011;16044;52.726;-2.108;2022-08-01T15:45:20;1.40;;;0.82;;